createdAt,value
2023-05-16T00:01:49.950Z,20.20
2023-05-16T00:04:17.742Z,20.20
2023-05-16T00:06:44.605Z,20.20
2023-05-16T00:09:11.426Z,20.20
2023-05-16T00:11:38.261Z,20.20
2023-05-16T00:14:05.259Z,20.10
2023-05-16T00:16:32.997Z,20.10
2023-05-16T00:19:00.952Z,20.10
2023-05-16T00:21:28.162Z,20.10
2023-05-16T00:23:55.076Z,20.10
2023-05-16T00:26:22.264Z,20.10
2023-05-16T00:28:49.241Z,20.10
2023-05-16T00:31:16.136Z,20.00
2023-05-16T00:33:42.970Z,20.00
2023-05-16T00:36:09.877Z,20.00
2023-05-16T00:38:37.579Z,20.00
2023-05-16T00:41:04.483Z,20.00
2023-05-16T00:43:31.301Z,20.00
2023-05-16T00:45:58.193Z,19.90
2023-05-16T00:48:25.850Z,19.90
2023-05-16T00:50:53.821Z,20.00
2023-05-16T00:53:23.237Z,19.90
2023-05-16T00:55:51.272Z,19.90
2023-05-16T00:58:19.214Z,19.90
2023-05-16T01:00:48.722Z,19.90
2023-05-16T01:03:16.119Z,19.90
2023-05-16T01:05:43.066Z,19.90
2023-05-16T01:08:10.687Z,19.90
2023-05-16T01:10:50.053Z,19.90
2023-05-16T01:13:33.693Z,19.80
2023-05-16T01:16:17.014Z,19.90
2023-05-16T01:19:08.317Z,19.80
2023-05-16T01:22:02.708Z,19.90
2023-05-16T01:24:46.786Z,19.80
2023-05-16T01:27:14.624Z,19.80
2023-05-16T01:29:41.414Z,19.80
2023-05-16T01:32:08.234Z,19.80
2023-05-16T01:34:35.028Z,19.80
2023-05-16T01:37:17.316Z,19.80
2023-05-16T01:40:07.914Z,19.70
2023-05-16T01:42:39.540Z,19.70
2023-05-16T01:45:10.031Z,19.70
2023-05-16T01:47:43.644Z,19.70
2023-05-16T01:50:14.843Z,19.70
2023-05-16T01:52:51.129Z,19.70
2023-05-16T01:55:48.182Z,19.70
2023-05-16T01:58:17.445Z,19.60
2023-05-16T02:00:45.076Z,19.70
2023-05-16T02:03:12.238Z,19.70
2023-05-16T02:05:39.135Z,19.70
2023-05-16T02:08:06.493Z,19.70
2023-05-16T02:10:33.280Z,19.60
2023-05-16T02:13:00.051Z,19.70
2023-05-16T02:15:27.104Z,19.70
2023-05-16T02:17:54.707Z,19.60
2023-05-16T02:20:22.108Z,19.60
2023-05-16T02:22:50.005Z,19.60
2023-05-16T02:25:17.162Z,19.60
2023-05-16T02:27:44.054Z,19.60
2023-05-16T02:30:12.218Z,19.60
2023-05-16T02:32:45.077Z,19.60
2023-05-16T02:35:12.426Z,19.60
2023-05-16T02:37:40.050Z,19.60
2023-05-16T02:40:08.051Z,19.60
2023-05-16T02:42:36.799Z,19.60
2023-05-16T02:45:03.788Z,19.60
2023-05-16T02:47:30.836Z,19.60
2023-05-16T02:49:57.697Z,19.60
2023-05-16T02:52:24.549Z,19.60
2023-05-16T02:55:04.741Z,19.50
2023-05-16T02:57:38.044Z,19.50
2023-05-16T03:00:06.345Z,19.50
2023-05-16T03:02:33.463Z,19.50
2023-05-16T03:05:00.527Z,19.50
2023-05-16T03:07:27.338Z,19.40
2023-05-16T03:09:54.206Z,19.40
2023-05-16T03:12:21.035Z,19.40
2023-05-16T03:14:47.800Z,19.40
2023-05-16T03:17:14.593Z,19.30
2023-05-16T03:19:41.526Z,19.30
2023-05-16T03:22:08.352Z,19.30
2023-05-16T03:24:35.155Z,19.30
2023-05-16T03:27:03.764Z,19.30
2023-05-16T03:29:31.225Z,19.30
2023-05-16T03:31:58.104Z,19.30
2023-05-16T03:34:25.049Z,19.30
2023-05-16T03:36:52.403Z,19.20
2023-05-16T03:39:19.249Z,19.20
2023-05-16T03:41:46.103Z,19.20
2023-05-16T03:44:12.893Z,19.10
2023-05-16T03:46:39.812Z,19.10
2023-05-16T03:49:06.603Z,19.10
2023-05-16T03:51:33.385Z,19.10
2023-05-16T03:54:00.310Z,19.10
2023-05-16T03:56:27.210Z,19.00
2023-05-16T03:58:54.050Z,19.00
2023-05-16T04:01:20.824Z,19.00
2023-05-16T04:03:48.019Z,18.90
2023-05-16T04:06:14.934Z,18.90
2023-05-16T04:08:44.909Z,18.90
2023-05-16T04:11:12.168Z,18.90
2023-05-16T04:13:39.089Z,18.80
2023-05-16T04:16:06.506Z,18.80
2023-05-16T04:18:33.421Z,18.80
2023-05-16T04:21:00.241Z,18.80
2023-05-16T04:23:27.096Z,18.70
2023-05-16T04:25:54.162Z,18.70
2023-05-16T04:28:21.041Z,18.70
2023-05-16T04:30:48.662Z,18.70
2023-05-16T04:33:16.629Z,18.60
2023-05-16T04:35:43.509Z,18.60
2023-05-16T04:38:10.538Z,18.60
2023-05-16T04:40:37.694Z,18.60
2023-05-16T04:43:04.479Z,18.60
2023-05-16T04:45:31.217Z,18.60
2023-05-16T04:47:58.016Z,18.60
2023-05-16T04:50:24.915Z,18.60
2023-05-16T04:52:51.739Z,18.60
2023-05-16T04:55:18.509Z,18.50
2023-05-16T04:57:45.303Z,18.50
2023-05-16T05:00:13.420Z,18.50
2023-05-16T05:02:40.335Z,18.50
2023-05-16T05:05:08.497Z,18.50
2023-05-16T05:07:35.538Z,18.50
2023-05-16T05:10:02.372Z,18.60
2023-05-16T05:12:29.119Z,18.60
2023-05-16T05:14:56.089Z,18.60
2023-05-16T05:17:23.663Z,18.60
2023-05-16T05:19:50.744Z,18.60
2023-05-16T05:22:17.652Z,18.60
2023-05-16T05:24:44.516Z,18.60
2023-05-16T05:27:11.345Z,18.60
2023-05-16T05:29:38.231Z,18.60
2023-05-16T05:32:05.627Z,18.60
2023-05-16T05:34:33.314Z,18.60
2023-05-16T05:37:00.428Z,18.70
2023-05-16T05:39:27.412Z,18.60
2023-05-16T05:41:54.241Z,18.70
2023-05-16T05:44:21.014Z,18.70
2023-05-16T05:46:47.918Z,18.70
2023-05-16T05:49:14.983Z,18.70
2023-05-16T05:51:41.846Z,18.70
2023-05-16T05:54:08.709Z,18.70
2023-05-16T05:56:35.469Z,18.70
2023-05-16T05:59:02.295Z,18.70
2023-05-16T06:01:29.151Z,18.70
2023-05-16T06:03:55.991Z,18.70
2023-05-16T06:06:22.929Z,18.70
2023-05-16T06:08:49.746Z,18.70
2023-05-16T06:11:16.513Z,18.70
2023-05-16T06:13:43.282Z,18.60
2023-05-16T06:16:10.186Z,18.60
2023-05-16T06:18:36.997Z,18.60
2023-05-16T06:21:04.160Z,18.70
2023-05-16T06:23:31.714Z,18.60
2023-05-16T06:25:58.486Z,18.60
2023-05-16T06:28:25.470Z,18.60
2023-05-16T06:30:52.344Z,18.60
2023-05-16T06:33:19.449Z,18.60
2023-05-16T06:35:48.063Z,18.60
2023-05-16T06:38:15.899Z,18.70
2023-05-16T06:40:42.802Z,18.70
2023-05-16T06:43:09.601Z,18.70
2023-05-16T06:45:36.447Z,18.70
2023-05-16T06:48:03.604Z,18.70
2023-05-16T06:50:30.545Z,18.70
2023-05-16T06:52:57.379Z,18.70
2023-05-16T06:55:24.294Z,18.70
2023-05-16T06:57:51.303Z,18.70
2023-05-16T07:00:18.653Z,18.60
2023-05-16T07:02:45.665Z,18.60
2023-05-16T07:05:12.847Z,18.60
2023-05-16T07:07:40.063Z,18.60
2023-05-16T07:10:07.273Z,18.50
2023-05-16T07:12:35.493Z,18.50
2023-05-16T07:15:02.420Z,18.40
2023-05-16T07:17:29.248Z,18.40
2023-05-16T07:19:57.361Z,18.30
2023-05-16T07:22:24.263Z,18.30
2023-05-16T07:24:53.262Z,18.20
2023-05-16T07:27:22.748Z,18.20
2023-05-16T07:29:50.413Z,18.10
2023-05-16T07:32:17.310Z,18.10
2023-05-16T07:34:44.365Z,18.10
2023-05-16T07:37:13.060Z,18.00
2023-05-16T07:39:40.353Z,18.00
2023-05-16T07:42:08.074Z,17.90
2023-05-16T07:44:36.082Z,17.90
2023-05-16T07:47:03.547Z,17.90
2023-05-16T07:49:30.452Z,17.90
2023-05-16T07:51:57.243Z,17.80
2023-05-16T07:54:24.153Z,17.80
2023-05-16T07:56:50.970Z,17.80
2023-05-16T07:59:17.938Z,17.80
2023-05-16T08:01:44.933Z,17.70
2023-05-16T08:04:11.760Z,17.70
2023-05-16T08:06:38.605Z,17.60
2023-05-16T08:09:05.444Z,17.60
2023-05-16T08:11:32.273Z,17.60
2023-05-16T08:13:59.084Z,17.50
2023-05-16T08:16:26.175Z,17.50
2023-05-16T08:18:53.442Z,17.40
2023-05-16T08:21:20.434Z,17.40
2023-05-16T08:23:47.273Z,17.30
2023-05-16T08:26:14.132Z,17.30
2023-05-16T08:28:40.989Z,17.30
2023-05-16T08:31:07.787Z,17.30
2023-05-16T08:33:34.624Z,17.30
2023-05-16T08:36:01.513Z,17.20
2023-05-16T08:38:28.348Z,17.30
2023-05-16T08:40:55.933Z,17.20
2023-05-16T08:43:23.442Z,17.20
2023-05-16T08:45:50.378Z,17.20
2023-05-16T08:48:21.592Z,17.20
2023-05-16T08:50:48.589Z,17.20
2023-05-16T08:53:21.523Z,17.10
2023-05-16T08:55:49.500Z,17.10
2023-05-16T08:58:17.616Z,17.00
2023-05-16T09:00:45.432Z,16.90
2023-05-16T09:03:12.693Z,16.90
2023-05-16T09:05:40.815Z,16.80
2023-05-16T09:08:07.683Z,16.70
2023-05-16T09:10:34.778Z,16.70
2023-05-16T09:13:01.564Z,16.70
2023-05-16T09:15:33.285Z,16.70
2023-05-16T09:18:03.197Z,16.60
2023-05-16T09:20:31.332Z,16.60
2023-05-16T09:22:59.941Z,16.60
2023-05-16T09:25:31.363Z,16.50
2023-05-16T09:28:02.056Z,16.50
2023-05-16T09:30:32.188Z,16.50
2023-05-16T09:32:59.601Z,16.50
2023-05-16T09:37:56.983Z,16.50
2023-05-16T09:40:24.386Z,16.50
2023-05-16T09:43:05.954Z,16.50
2023-05-16T09:45:34.332Z,16.50
2023-05-16T09:48:13.284Z,16.60
2023-05-16T09:50:40.910Z,16.60
2023-05-16T09:53:07.907Z,16.60
2023-05-16T09:55:35.050Z,16.60
2023-05-16T09:58:01.931Z,16.60
2023-05-16T10:00:31.423Z,16.70
2023-05-16T10:03:01.501Z,16.70
2023-05-16T10:05:31.844Z,16.70
2023-05-16T10:07:59.287Z,16.70
2023-05-16T10:10:27.358Z,16.70
2023-05-16T10:12:58.821Z,16.80
2023-05-16T10:15:26.843Z,16.80
2023-05-16T10:17:59.901Z,16.80
2023-05-16T10:20:27.481Z,16.90
2023-05-16T10:22:56.645Z,16.90
2023-05-16T10:25:34.021Z,16.90
2023-05-16T10:28:01.424Z,16.90
2023-05-16T10:30:28.743Z,16.90
2023-05-16T10:32:56.749Z,16.90
2023-05-16T10:35:23.694Z,16.90
2023-05-16T10:37:52.922Z,17.00
2023-05-16T10:40:21.282Z,17.00
2023-05-16T10:42:57.926Z,17.00
2023-05-16T10:45:25.268Z,17.00
2023-05-16T10:47:57.018Z,17.00
2023-05-16T10:50:42.841Z,17.10
2023-05-16T10:53:23.832Z,17.10
2023-05-16T10:55:56.613Z,17.10
2023-05-16T10:58:25.201Z,17.10
2023-05-16T11:01:21.239Z,17.20
2023-05-16T11:03:57.516Z,17.10
2023-05-16T11:06:25.268Z,17.20
2023-05-16T11:09:24.697Z,17.20
2023-05-16T11:12:03.987Z,17.20
2023-05-16T11:14:38.264Z,17.20
2023-05-16T11:17:11.179Z,17.20
2023-05-16T11:19:52.575Z,17.20
2023-05-16T11:22:19.379Z,17.20
2023-05-16T11:25:02.665Z,17.20
2023-05-16T11:27:31.512Z,17.20
2023-05-16T11:30:10.472Z,17.30
2023-05-16T11:32:39.152Z,17.30
2023-05-16T11:35:08.944Z,17.30
2023-05-16T11:37:42.516Z,17.30
2023-05-16T11:40:11.541Z,17.30
2023-05-16T11:42:42.415Z,17.30
2023-05-16T11:45:11.109Z,17.40
2023-05-16T11:47:39.432Z,17.40
2023-05-16T11:50:20.497Z,17.40
2023-05-16T11:52:49.281Z,17.40
2023-05-16T11:55:28.358Z,17.50
2023-05-16T11:58:00.241Z,17.50
2023-05-16T12:00:27.881Z,17.50
2023-05-16T12:03:00.557Z,17.50
2023-05-16T12:05:29.188Z,17.40
2023-05-16T12:07:56.794Z,17.50
2023-05-16T12:10:23.573Z,17.50
2023-05-16T12:12:52.816Z,17.50
2023-05-16T12:15:20.155Z,17.50
2023-05-16T12:17:48.019Z,17.50
2023-05-16T12:20:16.621Z,17.50
2023-05-16T12:22:45.088Z,17.60
2023-05-16T12:25:43.728Z,17.50
2023-05-16T12:28:12.723Z,17.50
2023-05-16T12:30:44.560Z,17.60
2023-05-16T12:33:14.185Z,17.60
2023-05-16T12:35:43.239Z,17.60
2023-05-16T12:38:12.197Z,17.70
2023-05-16T12:40:40.557Z,17.70
2023-05-16T12:43:21.143Z,17.80
2023-05-16T12:45:56.759Z,17.80
2023-05-16T12:48:29.884Z,17.80
2023-05-16T12:50:56.659Z,17.90
2023-05-16T12:53:23.476Z,17.90
2023-05-16T12:55:50.260Z,18.00
2023-05-16T12:58:17.762Z,18.00
2023-05-16T13:00:44.733Z,18.10
2023-05-16T13:03:12.242Z,18.10
2023-05-16T13:05:39.296Z,18.10
2023-05-16T13:08:06.251Z,18.20
2023-05-16T13:10:33.051Z,18.20
2023-05-16T13:13:00.326Z,18.20
2023-05-16T13:15:27.977Z,18.20
2023-05-16T13:17:55.172Z,18.20
2023-05-16T13:20:22.006Z,18.20
2023-05-16T13:22:49.239Z,18.30
2023-05-16T13:25:16.206Z,18.30
2023-05-16T13:27:43.252Z,18.30
2023-05-16T13:30:10.432Z,18.30
2023-05-16T13:32:38.150Z,18.30
2023-05-16T13:35:06.067Z,18.30
2023-05-16T13:37:33.053Z,18.40
2023-05-16T13:39:59.907Z,18.40
2023-05-16T13:42:26.828Z,18.50
2023-05-16T13:44:53.924Z,18.50
2023-05-16T13:47:20.913Z,18.60
2023-05-16T13:49:48.606Z,18.60
2023-05-16T13:52:15.720Z,18.70
2023-05-16T13:54:42.556Z,18.70
2023-05-16T13:57:09.523Z,18.80
2023-05-16T14:02:06.415Z,18.80
2023-05-16T14:04:33.275Z,18.90
2023-05-16T14:07:00.062Z,18.90
2023-05-16T14:09:26.905Z,18.90
2023-05-16T14:11:53.710Z,19.00
2023-05-16T14:14:21.308Z,19.00
2023-05-16T14:16:48.263Z,19.00
2023-05-16T14:19:18.155Z,19.10
2023-05-16T14:21:46.154Z,19.10
2023-05-16T14:24:12.958Z,19.10
2023-05-16T14:26:39.730Z,19.10
2023-05-16T14:29:06.700Z,19.10
2023-05-16T14:31:36.272Z,19.10
2023-05-16T14:34:03.208Z,19.10
2023-05-16T14:36:30.058Z,19.20
2023-05-16T14:38:56.829Z,19.20
2023-05-16T14:41:23.824Z,19.20
2023-05-16T14:43:51.016Z,19.20
2023-05-16T14:46:18.430Z,19.20
2023-05-16T14:48:45.538Z,19.20
2023-05-16T14:51:12.545Z,19.20
2023-05-16T14:53:39.385Z,19.20
2023-05-16T14:56:06.388Z,19.20
2023-05-16T14:58:33.212Z,19.20
2023-05-16T15:01:00.013Z,19.20
2023-05-16T15:03:27.241Z,19.20
2023-05-16T15:05:54.746Z,19.20
2023-05-16T15:08:22.336Z,19.30
2023-05-16T15:10:49.196Z,19.30
2023-05-16T15:13:15.995Z,19.30
2023-05-16T15:15:42.902Z,19.30
2023-05-16T15:18:11.119Z,19.30
2023-05-16T15:20:38.098Z,19.30
2023-05-16T15:23:04.920Z,19.30
2023-05-16T15:25:31.871Z,19.30
2023-05-16T15:27:58.689Z,19.30
2023-05-16T15:30:25.612Z,19.30
2023-05-16T15:32:52.670Z,19.30
2023-05-16T15:35:19.529Z,19.30
2023-05-16T15:37:46.641Z,19.30
2023-05-16T15:40:14.293Z,19.40
2023-05-16T15:42:44.133Z,19.40
2023-05-16T15:45:12.397Z,19.40
2023-05-16T15:47:39.296Z,19.40
2023-05-16T15:50:06.597Z,19.40
2023-05-16T15:52:35.785Z,19.40
2023-05-16T15:55:03.694Z,19.50
2023-05-16T15:57:31.201Z,19.40
2023-05-16T15:59:58.291Z,19.50
2023-05-16T16:02:25.461Z,19.40
2023-05-16T16:04:52.737Z,19.50
2023-05-16T16:07:19.689Z,19.40
2023-05-16T16:09:46.573Z,19.40
2023-05-16T16:12:13.742Z,19.40
2023-05-16T16:14:41.276Z,19.40
2023-05-16T16:17:08.172Z,19.40
2023-05-16T16:19:35.230Z,19.40
2023-05-16T16:22:02.055Z,19.40
2023-05-16T16:24:28.866Z,19.40
2023-05-16T16:26:55.676Z,19.30
2023-05-16T16:29:22.546Z,19.40
2023-05-16T16:31:49.481Z,19.40
2023-05-16T16:34:16.381Z,19.40
2023-05-16T16:36:43.221Z,19.30
2023-05-16T16:39:10.382Z,19.30
2023-05-16T16:41:37.596Z,19.30
2023-05-16T16:44:04.605Z,19.30
2023-05-16T16:46:31.625Z,19.30
2023-05-16T16:48:58.480Z,19.30
2023-05-16T16:51:25.570Z,19.30
2023-05-16T16:53:52.429Z,19.30
2023-05-16T16:56:19.658Z,19.30
2023-05-16T16:58:46.493Z,19.30
2023-05-16T17:01:13.356Z,19.20
2023-05-16T17:03:40.520Z,19.20
2023-05-16T17:06:07.686Z,19.20
2023-05-16T17:08:34.545Z,19.20
2023-05-16T17:11:05.087Z,19.20
2023-05-16T17:13:33.935Z,19.10
2023-05-16T17:16:01.499Z,19.10
2023-05-16T17:18:28.312Z,19.20
2023-05-16T17:20:56.137Z,19.10
2023-05-16T17:23:23.038Z,19.10
2023-05-16T17:25:49.945Z,19.10
2023-05-16T17:28:17.034Z,19.10
2023-05-16T17:30:44.148Z,19.10
2023-05-16T17:33:11.189Z,19.10
2023-05-16T17:35:38.476Z,19.10
2023-05-16T17:38:05.311Z,19.10
2023-05-16T17:40:32.203Z,19.10
2023-05-16T17:42:59.025Z,19.10
2023-05-16T17:45:26.128Z,19.10
2023-05-16T17:47:53.183Z,19.10
2023-05-16T17:50:21.751Z,19.10
2023-05-16T17:52:48.721Z,19.20
2023-05-16T17:55:15.577Z,19.10
2023-05-16T17:57:42.548Z,19.20
2023-05-16T18:00:09.801Z,19.20
2023-05-16T18:02:39.408Z,19.10
2023-05-16T18:05:06.978Z,19.10
2023-05-16T18:07:34.112Z,19.10
2023-05-16T18:10:00.883Z,19.10
2023-05-16T18:12:27.755Z,19.10
2023-05-16T18:14:54.580Z,19.10
2023-05-16T18:17:21.511Z,19.00
2023-05-16T18:19:48.455Z,19.00
2023-05-16T18:22:15.502Z,19.00
2023-05-16T18:24:42.376Z,19.00
2023-05-16T18:27:09.623Z,19.00
2023-05-16T18:29:36.945Z,19.00
2023-05-16T18:32:04.327Z,19.00
2023-05-16T18:34:31.540Z,18.90
2023-05-16T18:36:58.419Z,18.90
2023-05-16T18:39:25.445Z,18.90
2023-05-16T18:41:52.255Z,18.90
2023-05-16T18:44:20.259Z,18.90
2023-05-16T18:46:47.247Z,18.90
2023-05-16T18:49:14.538Z,18.90
2023-05-16T18:51:41.596Z,18.80
2023-05-16T18:54:08.526Z,18.80
2023-05-16T18:56:35.389Z,18.80
2023-05-16T18:59:02.309Z,18.80
2023-05-16T19:01:29.247Z,18.80
2023-05-16T19:03:56.737Z,18.70
2023-05-16T19:06:23.758Z,18.70
2023-05-16T19:08:50.617Z,18.70
2023-05-16T19:11:17.887Z,18.70
2023-05-16T19:13:45.541Z,18.70
2023-05-16T19:16:12.828Z,18.70
2023-05-16T19:18:39.866Z,18.70
2023-05-16T19:21:13.155Z,18.60
2023-05-16T19:23:40.501Z,18.60
2023-05-16T19:26:07.313Z,18.60
2023-05-16T19:28:34.737Z,18.60
2023-05-16T19:31:01.571Z,18.60
2023-05-16T19:33:28.387Z,18.60
2023-05-16T19:35:58.454Z,18.50
2023-05-16T19:38:25.857Z,18.50
2023-05-16T19:40:53.300Z,18.40
2023-05-16T19:43:20.092Z,18.40
2023-05-16T19:45:46.952Z,18.40
2023-05-16T19:48:13.947Z,18.40
2023-05-16T19:50:42.477Z,18.30
2023-05-16T19:53:09.279Z,18.30
2023-05-16T19:55:38.082Z,18.30
2023-05-16T19:58:05.677Z,18.30
2023-05-16T20:00:32.640Z,18.20
2023-05-16T20:02:59.584Z,18.20
2023-05-16T20:05:27.146Z,18.20
2023-05-16T20:07:55.289Z,18.20
2023-05-16T20:10:22.331Z,18.20
2023-05-16T20:12:49.526Z,18.20
2023-05-16T20:15:16.576Z,18.10
2023-05-16T20:17:43.433Z,18.10
2023-05-16T20:20:10.898Z,18.10
2023-05-16T20:22:38.918Z,18.10
2023-05-16T20:25:09.747Z,18.10
2023-05-16T20:27:36.829Z,18.10
2023-05-16T20:30:05.104Z,18.00
2023-05-16T20:32:32.303Z,18.00
2023-05-16T20:34:59.165Z,18.00
2023-05-16T20:37:26.739Z,18.00
2023-05-16T20:39:54.423Z,17.90
2023-05-16T20:42:21.643Z,17.90
2023-05-16T20:44:48.545Z,17.90
2023-05-16T20:47:17.126Z,17.90
2023-05-16T20:49:44.079Z,17.80
2023-05-16T20:52:11.141Z,17.80
2023-05-16T20:54:38.056Z,17.80
2023-05-16T20:57:05.400Z,17.70
2023-05-16T20:59:32.374Z,17.70
2023-05-16T21:01:59.468Z,17.70
2023-05-16T21:04:26.482Z,17.60
2023-05-16T21:06:53.397Z,17.60
2023-05-16T21:09:20.197Z,17.60
2023-05-16T21:11:47.002Z,17.60
2023-05-16T21:14:14.690Z,17.50
2023-05-16T21:16:41.905Z,17.50
2023-05-16T21:19:09.048Z,17.50
2023-05-16T21:21:35.996Z,17.50
2023-05-16T21:24:03.699Z,17.40
2023-05-16T21:26:30.592Z,17.40
2023-05-16T21:28:57.477Z,17.30
2023-05-16T21:31:24.336Z,17.30
2023-05-16T21:33:52.173Z,17.30
2023-05-16T21:36:20.238Z,17.20
2023-05-16T21:38:47.296Z,17.20
2023-05-16T21:41:14.577Z,17.20
2023-05-16T21:43:41.665Z,17.10
2023-05-16T21:46:08.458Z,17.10
2023-05-16T21:48:35.750Z,17.10
2023-05-16T21:51:03.487Z,17.10
2023-05-16T21:53:30.389Z,17.00
2023-05-16T21:55:57.196Z,17.00
2023-05-16T21:58:25.219Z,17.00
2023-05-16T22:00:52.057Z,17.00
2023-05-16T22:03:20.948Z,16.90
2023-05-16T22:05:48.367Z,16.90
2023-05-16T22:08:15.345Z,16.90
2023-05-16T22:10:42.348Z,16.80
2023-05-16T22:13:09.216Z,16.80
2023-05-16T22:15:36.133Z,16.80
2023-05-16T22:18:03.442Z,16.70
2023-05-16T22:20:30.355Z,16.70
2023-05-16T22:22:57.466Z,16.70
2023-05-16T22:25:24.376Z,16.70
2023-05-16T22:27:51.196Z,16.70
2023-05-16T22:30:18.460Z,16.60
2023-05-16T22:32:46.786Z,16.60
2023-05-16T22:35:14.091Z,16.60
2023-05-16T22:37:40.895Z,16.60
2023-05-16T22:40:08.645Z,16.50
2023-05-16T22:42:35.504Z,16.50
2023-05-16T22:45:03.820Z,16.50
2023-05-16T22:47:30.779Z,16.50
2023-05-16T22:49:57.670Z,16.50
2023-05-16T22:52:24.519Z,16.40
2023-05-16T22:54:51.303Z,16.40
2023-05-16T22:57:18.237Z,16.30
2023-05-16T22:59:45.074Z,16.30
2023-05-16T23:02:11.879Z,16.20
2023-05-16T23:04:38.774Z,16.20
2023-05-16T23:07:05.832Z,16.20
2023-05-16T23:09:32.677Z,16.10
2023-05-16T23:11:59.507Z,16.10
2023-05-16T23:14:26.340Z,16.00
2023-05-16T23:16:53.228Z,16.00
2023-05-16T23:19:20.254Z,15.90
2023-05-16T23:21:47.229Z,15.80
2023-05-16T23:24:14.057Z,15.80
2023-05-16T23:26:40.848Z,15.70
2023-05-16T23:29:08.041Z,15.70
2023-05-16T23:31:34.913Z,15.70
2023-05-16T23:34:02.115Z,15.70
2023-05-16T23:36:29.029Z,15.60
2023-05-16T23:38:55.849Z,15.60
2023-05-16T23:41:22.689Z,15.60
2023-05-16T23:43:49.509Z,15.60
2023-05-16T23:46:16.309Z,15.60
2023-05-16T23:48:43.317Z,15.50
2023-05-16T23:51:10.168Z,15.50
2023-05-16T23:53:37.157Z,15.50
2023-05-16T23:56:04.103Z,15.50
2023-05-16T23:58:31.011Z,15.40
